METAR AND TAF INFORMATION
METAR FOR LGLM
ADDS - METARS form results

(1808 UTC 21 July 2019)
Data provider http://aviationweather.gov/metar/data/
 
METAR text: LGLM 211750Z 35004KT CAVOK 26/16 Q1015
Conditions at: LGLM (LIMNOS ISLAND AR, GR) observed 1750 UTC 21 July 2019
Temperature: 26.0°C (79°F)
Dewpoint: 16.0°C (61°F) [RH = 54%]
Pressure (altimeter): 29.97 inches Hg (1015.0 mb)
Winds: from the N (350 degrees) at 5 MPH (4 knots; 2.1 m/s)
Visibility: 6 or more miles (10+ km)
Ceiling: ceiling and visibility are OK
Clouds: unknown
Weather: no significant weather observed at this time

METAR text: LGLM 211720Z 01004KT CAVOK 28/16 Q1015
Conditions at: LGLM (LIMNOS ISLAND AR, GR) observed 1720 UTC 21 July 2019
Temperature: 28.0°C (82°F)
Dewpoint: 16.0°C (61°F) [RH = 48%]
Pressure (altimeter): 29.97 inches Hg (1015.0 mb)
Winds: from the N (10 degrees) at 5 MPH (4 knots; 2.1 m/s)
Visibility: 6 or more miles (10+ km)
Ceiling: ceiling and visibility are OK
Clouds: unknown
Weather: no significant weather observed at this time

Forecast for: LGLM (LIMNOS ISLAND AR, GR)
Text: TAF LGLM 211700Z 2118/2203 34010KT CAVOK
Forecast period: 1800 to 2200 UTC 21 July 2019
Forecast type: FROM: standard forecast or significant change
Winds: from the NNW (340 degrees) at 12 MPH (10 knots; 5.1 m/s)
Visibility: 6 or more miles 10+ km)
Ceiling: unknown
Clouds: missing
Weather: NSW  (no significant weather)
Text: BECMG 2122/2124 04015G25KT
Forecast period: 2200 UTC 21 July 2019 to 0300 UTC 22 July 2019
Forecast type: BECOMING: Conditions expected to become as follows by 0000 UTC 22 July 2019
Winds: from the NE (40 degrees) at 17 MPH (15 knots; 7.7 m/s)
gusting to 29 MPH (25 knots; 12.9 m/s)
Visibility: 6 or more miles 10+ km)
Ceiling: unknown
Clouds: missing
Weather: NSW  (no significant weather)

 ΧΑΡΤΗΣ ΑΕΡΟΔΡΟΜΙΟΥ

 RUNWAY INFORMATION
Διάδρομος 04R Runway length 9895 ft Runway width 148 ft
Runway elevation 13 ft Runway displaced threshold 0 ft Runway heading 43
Διάδρομος 22L Runway length 9895 ft Runway width 148 ft
Runway elevation 13 ft Runway displaced threshold 0 ft Runway heading 223

 ΣΥΧΝΟΤΗΤΕΣ ΑΕΡΟΔΡΟΜΙΟΥ
Τύπος A/G Όνομα RDO Συχνότητα 563.7 MHZ
Τύπος APP Όνομα APP Συχνότητα 122.1 MHZ
Τύπος TWR Όνομα TWR Συχνότητα 122.1 MHZ

 AIRPORT NEAR NAVIGATION AIDS
Τύπος NDB Όνομα Limnos Συχνότητα 429 KHZ
Τύπος TACAN Όνομα Limnos Συχνότητα 114800 KHZ
Τύπος VOR-DME Όνομα Limnos Συχνότητα 109200 KHZ



Hellenic Air Force Virtual - All rights reserved 2019 - Powered by VAM